sensor_id;sensor_type;location;lat;lon;timestamp;P1;durP1;ratioP1;P2;durP2;ratioP2
10299;SDS011;5195;48.562;9.192;2023-01-16T00:01:43;2.23;;;1.30;;
10299;SDS011;5195;48.562;9.192;2023-01-16T00:04:18;2.20;;;1.10;;
10299;SDS011;5195;48.562;9.192;2023-01-16T00:06:54;2.53;;;1.10;;
10299;SDS011;5195;48.562;9.192;2023-01-16T00:09:29;2.00;;;0.87;;
10299;SDS011;5195;48.562;9.192;2023-01-16T00:12:05;1.10;;;0.90;;
10299;SDS011;5195;48.562;9.192;2023-01-16T00:14:41;2.83;;;1.00;;
10299;SDS011;5195;48.562;9.192;2023-01-16T00:17:16;2.13;;;0.90;;
10299;SDS011;5195;48.562;9.192;2023-01-16T00:19:52;1.87;;;0.97;;
10299;SDS011;5195;48.562;9.192;2023-01-16T00:22:28;2.17;;;1.00;;
10299;SDS011;5195;48.562;9.192;2023-01-16T00:25:04;2.62;;;1.27;;
10299;SDS011;5195;48.562;9.192;2023-01-16T00:27:41;1.50;;;0.90;;
10299;SDS011;5195;48.562;9.192;2023-01-16T00:30:16;1.13;;;1.00;;
10299;SDS011;5195;48.562;9.192;2023-01-16T00:32:52;2.13;;;1.00;;
10299;SDS011;5195;48.562;9.192;2023-01-16T00:35:28;2.00;;;1.07;;
10299;SDS011;5195;48.562;9.192;2023-01-16T00:38:04;1.20;;;1.00;;
10299;SDS011;5195;48.562;9.192;2023-01-16T00:40:41;2.97;;;0.80;;
10299;SDS011;5195;48.562;9.192;2023-01-16T00:43:18;2.75;;;1.02;;
10299;SDS011;5195;48.562;9.192;2023-01-16T00:45:53;3.47;;;0.98;;
10299;SDS011;5195;48.562;9.192;2023-01-16T00:48:29;0.73;;;0.73;;
10299;SDS011;5195;48.562;9.192;2023-01-16T00:51:05;1.73;;;1.23;;
10299;SDS011;5195;48.562;9.192;2023-01-16T00:53:41;1.62;;;1.10;;
10299;SDS011;5195;48.562;9.192;2023-01-16T00:56:16;1.70;;;1.15;;
10299;SDS011;5195;48.562;9.192;2023-01-16T00:58:52;1.77;;;1.00;;
10299;SDS011;5195;48.562;9.192;2023-01-16T01:01:28;2.60;;;0.90;;
10299;SDS011;5195;48.562;9.192;2023-01-16T01:04:03;1.73;;;1.20;;
10299;SDS011;5195;48.562;9.192;2023-01-16T01:06:39;2.07;;;0.87;;
10299;SDS011;5195;48.562;9.192;2023-01-16T01:09:14;1.40;;;1.00;;
10299;SDS011;5195;48.562;9.192;2023-01-16T01:11:50;1.63;;;1.00;;
10299;SDS011;5195;48.562;9.192;2023-01-16T01:14:27;1.73;;;1.07;;
10299;SDS011;5195;48.562;9.192;2023-01-16T01:17:03;1.97;;;1.40;;
10299;SDS011;5195;48.562;9.192;2023-01-16T01:19:39;1.40;;;1.30;;
10299;SDS011;5195;48.562;9.192;2023-01-16T01:22:14;2.37;;;1.10;;
10299;SDS011;5195;48.562;9.192;2023-01-16T01:24:50;1.25;;;1.10;;
10299;SDS011;5195;48.562;9.192;2023-01-16T01:27:25;2.73;;;1.27;;
10299;SDS011;5195;48.562;9.192;2023-01-16T01:30:01;2.17;;;1.10;;
10299;SDS011;5195;48.562;9.192;2023-01-16T01:32:37;2.83;;;1.10;;
10299;SDS011;5195;48.562;9.192;2023-01-16T01:35:13;1.70;;;1.10;;
10299;SDS011;5195;48.562;9.192;2023-01-16T01:37:49;2.67;;;1.17;;
10299;SDS011;5195;48.562;9.192;2023-01-16T01:40:25;2.08;;;1.20;;
10299;SDS011;5195;48.562;9.192;2023-01-16T01:43:00;1.40;;;1.10;;
10299;SDS011;5195;48.562;9.192;2023-01-16T01:45:36;3.40;;;1.37;;
10299;SDS011;5195;48.562;9.192;2023-01-16T01:51:04;1.23;;;1.13;;
10299;SDS011;5195;48.562;9.192;2023-01-16T01:56:24;2.13;;;1.20;;
10299;SDS011;5195;48.562;9.192;2023-01-16T01:59:25;2.13;;;1.10;;
10299;SDS011;5195;48.562;9.192;2023-01-16T02:01:59;1.13;;;0.80;;
10299;SDS011;5195;48.562;9.192;2023-01-16T02:04:36;2.87;;;1.27;;
10299;SDS011;5195;48.562;9.192;2023-01-16T02:07:12;1.47;;;1.20;;
10299;SDS011;5195;48.562;9.192;2023-01-16T02:09:46;2.37;;;1.30;;
10299;SDS011;5195;48.562;9.192;2023-01-16T02:12:23;2.12;;;1.17;;
10299;SDS011;5195;48.562;9.192;2023-01-16T02:15:01;1.40;;;1.10;;
10299;SDS011;5195;48.562;9.192;2023-01-16T02:17:42;2.13;;;1.30;;
10299;SDS011;5195;48.562;9.192;2023-01-16T02:20:36;1.73;;;1.20;;
10299;SDS011;5195;48.562;9.192;2023-01-16T02:37:42;4.00;;;1.03;;
10299;SDS011;5195;48.562;9.192;2023-01-16T02:43:32;1.30;;;0.93;;
10299;SDS011;5195;48.562;9.192;2023-01-16T02:49:10;1.27;;;1.07;;
10299;SDS011;5195;48.562;9.192;2023-01-16T02:57:23;1.33;;;1.20;;
10299;SDS011;5195;48.562;9.192;2023-01-16T02:59:59;1.17;;;0.73;;
10299;SDS011;5195;48.562;9.192;2023-01-16T03:02:34;1.57;;;0.90;;
10299;SDS011;5195;48.562;9.192;2023-01-16T03:05:10;1.23;;;0.90;;
10299;SDS011;5195;48.562;9.192;2023-01-16T03:10:41;2.22;;;1.20;;
10299;SDS011;5195;48.562;9.192;2023-01-16T03:13:16;1.67;;;1.30;;
10299;SDS011;5195;48.562;9.192;2023-01-16T03:21:43;1.60;;;1.07;;
10299;SDS011;5195;48.562;9.192;2023-01-16T03:27:11;1.83;;;0.90;;
10299;SDS011;5195;48.562;9.192;2023-01-16T03:29:50;1.48;;;0.90;;
10299;SDS011;5195;48.562;9.192;2023-01-16T03:32:31;1.30;;;0.90;;
10299;SDS011;5195;48.562;9.192;2023-01-16T03:35:13;1.73;;;1.00;;
10299;SDS011;5195;48.562;9.192;2023-01-16T03:37:52;1.00;;;0.80;;
10299;SDS011;5195;48.562;9.192;2023-01-16T03:40:28;1.60;;;0.90;;
10299;SDS011;5195;48.562;9.192;2023-01-16T03:45:56;1.37;;;0.87;;
10299;SDS011;5195;48.562;9.192;2023-01-16T03:48:33;2.10;;;0.90;;
10299;SDS011;5195;48.562;9.192;2023-01-16T03:51:06;2.13;;;1.07;;
10299;SDS011;5195;48.562;9.192;2023-01-16T03:53:43;1.93;;;1.20;;
10299;SDS011;5195;48.562;9.192;2023-01-16T03:59:00;1.47;;;1.07;;
10299;SDS011;5195;48.562;9.192;2023-01-16T04:04:32;2.00;;;0.87;;
10299;SDS011;5195;48.562;9.192;2023-01-16T04:10:19;2.33;;;0.90;;
10299;SDS011;5195;48.562;9.192;2023-01-16T04:13:00;1.13;;;1.00;;
10299;SDS011;5195;48.562;9.192;2023-01-16T04:15:35;1.62;;;0.90;;
10299;SDS011;5195;48.562;9.192;2023-01-16T04:18:10;1.80;;;1.10;;
10299;SDS011;5195;48.562;9.192;2023-01-16T04:20:46;1.00;;;0.90;;
10299;SDS011;5195;48.562;9.192;2023-01-16T04:23:21;2.00;;;1.10;;
10299;SDS011;5195;48.562;9.192;2023-01-16T04:25:57;1.70;;;0.93;;
10299;SDS011;5195;48.562;9.192;2023-01-16T04:28:32;1.50;;;0.90;;
10299;SDS011;5195;48.562;9.192;2023-01-16T04:31:08;1.45;;;0.80;;
10299;SDS011;5195;48.562;9.192;2023-01-16T04:33:43;1.80;;;0.90;;
10299;SDS011;5195;48.562;9.192;2023-01-16T04:36:19;1.73;;;1.02;;
10299;SDS011;5195;48.562;9.192;2023-01-16T04:38:55;1.67;;;0.98;;
10299;SDS011;5195;48.562;9.192;2023-01-16T04:41:30;1.50;;;0.90;;
10299;SDS011;5195;48.562;9.192;2023-01-16T04:44:12;1.83;;;1.05;;
10299;SDS011;5195;48.562;9.192;2023-01-16T04:46:47;2.53;;;0.80;;
10299;SDS011;5195;48.562;9.192;2023-01-16T04:49:24;2.10;;;0.97;;
10299;SDS011;5195;48.562;9.192;2023-01-16T04:51:59;2.20;;;0.85;;
10299;SDS011;5195;48.562;9.192;2023-01-16T04:54:35;2.07;;;1.00;;
10299;SDS011;5195;48.562;9.192;2023-01-16T04:57:10;1.47;;;0.80;;
10299;SDS011;5195;48.562;9.192;2023-01-16T04:59:46;1.33;;;0.97;;
10299;SDS011;5195;48.562;9.192;2023-01-16T05:02:22;1.43;;;0.90;;
10299;SDS011;5195;48.562;9.192;2023-01-16T05:04:57;1.70;;;0.90;;
10299;SDS011;5195;48.562;9.192;2023-01-16T05:07:33;1.33;;;0.93;;
10299;SDS011;5195;48.562;9.192;2023-01-16T05:10:09;1.52;;;0.90;;
10299;SDS011;5195;48.562;9.192;2023-01-16T05:12:45;0.80;;;0.50;;
10299;SDS011;5195;48.562;9.192;2023-01-16T05:15:21;1.57;;;1.00;;
10299;SDS011;5195;48.562;9.192;2023-01-16T05:17:57;2.63;;;1.20;;
10299;SDS011;5195;48.562;9.192;2023-01-16T05:20:32;1.13;;;1.10;;
10299;SDS011;5195;48.562;9.192;2023-01-16T05:23:09;1.37;;;0.80;;
10299;SDS011;5195;48.562;9.192;2023-01-16T05:25:45;0.80;;;0.80;;
10299;SDS011;5195;48.562;9.192;2023-01-16T05:28:22;1.20;;;0.93;;
10299;SDS011;5195;48.562;9.192;2023-01-16T05:30:57;1.10;;;0.90;;
10299;SDS011;5195;48.562;9.192;2023-01-16T05:33:34;1.80;;;1.07;;
10299;SDS011;5195;48.562;9.192;2023-01-16T05:36:10;2.47;;;1.20;;
10299;SDS011;5195;48.562;9.192;2023-01-16T05:38:45;1.73;;;0.97;;
10299;SDS011;5195;48.562;9.192;2023-01-16T05:41:21;1.50;;;1.40;;
10299;SDS011;5195;48.562;9.192;2023-01-16T05:43:56;2.13;;;1.20;;
10299;SDS011;5195;48.562;9.192;2023-01-16T05:46:32;2.93;;;0.90;;
10299;SDS011;5195;48.562;9.192;2023-01-16T05:49:08;1.20;;;1.10;;
10299;SDS011;5195;48.562;9.192;2023-01-16T05:51:45;2.27;;;1.50;;
10299;SDS011;5195;48.562;9.192;2023-01-16T05:54:21;1.30;;;1.20;;
10299;SDS011;5195;48.562;9.192;2023-01-16T05:56:56;2.17;;;1.47;;
10299;SDS011;5195;48.562;9.192;2023-01-16T05:59:33;1.73;;;1.50;;
10299;SDS011;5195;48.562;9.192;2023-01-16T06:02:09;1.33;;;1.20;;
10299;SDS011;5195;48.562;9.192;2023-01-16T06:04:46;1.43;;;1.10;;
10299;SDS011;5195;48.562;9.192;2023-01-16T06:07:21;2.93;;;1.30;;
10299;SDS011;5195;48.562;9.192;2023-01-16T06:09:57;1.33;;;1.13;;
10299;SDS011;5195;48.562;9.192;2023-01-16T06:12:32;3.70;;;1.03;;
10299;SDS011;5195;48.562;9.192;2023-01-16T06:15:08;1.90;;;1.40;;
10299;SDS011;5195;48.562;9.192;2023-01-16T06:17:44;46.80;;;31.83;;
10299;SDS011;5195;48.562;9.192;2023-01-16T06:20:19;36.17;;;21.23;;
10299;SDS011;5195;48.562;9.192;2023-01-16T06:22:56;23.38;;;20.17;;
10299;SDS011;5195;48.562;9.192;2023-01-16T06:25:31;3.53;;;3.23;;
10299;SDS011;5195;48.562;9.192;2023-01-16T06:28:07;3.87;;;2.30;;
10299;SDS011;5195;48.562;9.192;2023-01-16T06:30:43;2.80;;;1.70;;
10299;SDS011;5195;48.562;9.192;2023-01-16T06:33:19;2.40;;;2.20;;
10299;SDS011;5195;48.562;9.192;2023-01-16T06:35:56;3.70;;;3.43;;
10299;SDS011;5195;48.562;9.192;2023-01-16T06:38:31;3.43;;;3.23;;
10299;SDS011;5195;48.562;9.192;2023-01-16T06:41:07;2.23;;;1.90;;
10299;SDS011;5195;48.562;9.192;2023-01-16T06:43:42;3.47;;;3.17;;
10299;SDS011;5195;48.562;9.192;2023-01-16T06:46:18;2.78;;;2.03;;
10299;SDS011;5195;48.562;9.192;2023-01-16T06:48:56;2.07;;;1.50;;
10299;SDS011;5195;48.562;9.192;2023-01-16T06:51:31;1.60;;;1.50;;
10299;SDS011;5195;48.562;9.192;2023-01-16T06:54:08;1.73;;;1.62;;
10299;SDS011;5195;48.562;9.192;2023-01-16T06:56:42;1.85;;;1.60;;
10299;SDS011;5195;48.562;9.192;2023-01-16T06:59:18;2.47;;;1.57;;
10299;SDS011;5195;48.562;9.192;2023-01-16T07:01:54;1.87;;;1.77;;
10299;SDS011;5195;48.562;9.192;2023-01-16T07:04:29;1.33;;;1.30;;
10299;SDS011;5195;48.562;9.192;2023-01-16T07:07:05;1.85;;;1.75;;
10299;SDS011;5195;48.562;9.192;2023-01-16T07:09:42;1.40;;;1.30;;
10299;SDS011;5195;48.562;9.192;2023-01-16T07:12:18;4.73;;;4.33;;
10299;SDS011;5195;48.562;9.192;2023-01-16T07:14:54;1.70;;;1.60;;
10299;SDS011;5195;48.562;9.192;2023-01-16T07:17:43;1.30;;;1.20;;
10299;SDS011;5195;48.562;9.192;2023-01-16T07:20:38;1.80;;;1.30;;
10299;SDS011;5195;48.562;9.192;2023-01-16T07:23:34;3.92;;;3.60;;
10299;SDS011;5195;48.562;9.192;2023-01-16T07:26:10;4.67;;;4.27;;
10299;SDS011;5195;48.562;9.192;2023-01-16T07:28:46;1.48;;;1.37;;
10299;SDS011;5195;48.562;9.192;2023-01-16T07:31:21;3.03;;;1.30;;
10299;SDS011;5195;48.562;9.192;2023-01-16T07:33:56;0.90;;;0.90;;
10299;SDS011;5195;48.562;9.192;2023-01-16T07:36:32;3.80;;;2.97;;
10299;SDS011;5195;48.562;9.192;2023-01-16T07:39:07;11.07;;;7.70;;
10299;SDS011;5195;48.562;9.192;2023-01-16T07:41:43;1.53;;;1.40;;
10299;SDS011;5195;48.562;9.192;2023-01-16T07:44:19;1.50;;;1.30;;
10299;SDS011;5195;48.562;9.192;2023-01-16T07:46:54;2.80;;;2.57;;
10299;SDS011;5195;48.562;9.192;2023-01-16T07:49:30;2.15;;;1.37;;
10299;SDS011;5195;48.562;9.192;2023-01-16T07:52:05;1.17;;;1.12;;
10299;SDS011;5195;48.562;9.192;2023-01-16T07:54:41;1.15;;;1.00;;
10299;SDS011;5195;48.562;9.192;2023-01-16T07:57:16;1.00;;;1.00;;
10299;SDS011;5195;48.562;9.192;2023-01-16T07:59:53;1.40;;;0.95;;
10299;SDS011;5195;48.562;9.192;2023-01-16T08:02:28;1.03;;;1.03;;
10299;SDS011;5195;48.562;9.192;2023-01-16T08:05:04;0.70;;;0.70;;
10299;SDS011;5195;48.562;9.192;2023-01-16T08:07:40;2.07;;;1.60;;
10299;SDS011;5195;48.562;9.192;2023-01-16T08:10:16;1.87;;;0.73;;
10299;SDS011;5195;48.562;9.192;2023-01-16T08:12:52;2.57;;;1.20;;
10299;SDS011;5195;48.562;9.192;2023-01-16T08:15:27;1.85;;;0.80;;
10299;SDS011;5195;48.562;9.192;2023-01-16T08:18:03;1.33;;;0.80;;
10299;SDS011;5195;48.562;9.192;2023-01-16T08:20:38;0.90;;;0.90;;
10299;SDS011;5195;48.562;9.192;2023-01-16T08:23:14;1.08;;;0.98;;
10299;SDS011;5195;48.562;9.192;2023-01-16T08:25:50;2.92;;;0.93;;
10299;SDS011;5195;48.562;9.192;2023-01-16T08:28:26;1.23;;;0.70;;
10299;SDS011;5195;48.562;9.192;2023-01-16T08:31:06;0.90;;;0.90;;
10299;SDS011;5195;48.562;9.192;2023-01-16T08:33:41;0.87;;;0.83;;
10299;SDS011;5195;48.562;9.192;2023-01-16T08:36:16;0.80;;;0.80;;
10299;SDS011;5195;48.562;9.192;2023-01-16T08:38:52;2.03;;;0.90;;
10299;SDS011;5195;48.562;9.192;2023-01-16T08:41:27;1.03;;;1.03;;
10299;SDS011;5195;48.562;9.192;2023-01-16T08:44:23;0.90;;;0.90;;
10299;SDS011;5195;48.562;9.192;2023-01-16T08:47:20;1.17;;;0.73;;
10299;SDS011;5195;48.562;9.192;2023-01-16T08:53:09;1.33;;;1.00;;
10299;SDS011;5195;48.562;9.192;2023-01-16T08:55:45;0.60;;;0.60;;
10299;SDS011;5195;48.562;9.192;2023-01-16T08:58:20;1.20;;;0.90;;
10299;SDS011;5195;48.562;9.192;2023-01-16T09:00:57;1.50;;;1.40;;
10299;SDS011;5195;48.562;9.192;2023-01-16T09:03:33;0.93;;;0.93;;
10299;SDS011;5195;48.562;9.192;2023-01-16T09:06:11;1.30;;;1.20;;
10299;SDS011;5195;48.562;9.192;2023-01-16T09:08:48;0.83;;;0.83;;
10299;SDS011;5195;48.562;9.192;2023-01-16T09:11:24;0.87;;;0.83;;
10299;SDS011;5195;48.562;9.192;2023-01-16T09:14:19;0.80;;;0.80;;
10299;SDS011;5195;48.562;9.192;2023-01-16T09:16:55;0.90;;;0.90;;
10299;SDS011;5195;48.562;9.192;2023-01-16T09:19:31;0.80;;;0.70;;
10299;SDS011;5195;48.562;9.192;2023-01-16T09:22:07;0.90;;;0.90;;
10299;SDS011;5195;48.562;9.192;2023-01-16T09:24:42;1.10;;;1.10;;
10299;SDS011;5195;48.562;9.192;2023-01-16T09:27:18;1.20;;;1.10;;
10299;SDS011;5195;48.562;9.192;2023-01-16T09:29:54;0.50;;;0.50;;
10299;SDS011;5195;48.562;9.192;2023-01-16T09:32:30;0.90;;;0.90;;
10299;SDS011;5195;48.562;9.192;2023-01-16T09:35:07;0.73;;;0.73;;
10299;SDS011;5195;48.562;9.192;2023-01-16T09:37:43;0.80;;;0.80;;
10299;SDS011;5195;48.562;9.192;2023-01-16T09:40:19;0.70;;;0.60;;
10299;SDS011;5195;48.562;9.192;2023-01-16T09:43:01;0.67;;;0.60;;
10299;SDS011;5195;48.562;9.192;2023-01-16T09:48:54;1.00;;;0.70;;
10299;SDS011;5195;48.562;9.192;2023-01-16T09:51:35;0.80;;;0.80;;
10299;SDS011;5195;48.562;9.192;2023-01-16T09:54:17;0.90;;;0.90;;
10299;SDS011;5195;48.562;9.192;2023-01-16T09:57:13;1.33;;;1.30;;
10299;SDS011;5195;48.562;9.192;2023-01-16T10:00:09;2.07;;;1.97;;
10299;SDS011;5195;48.562;9.192;2023-01-16T10:02:46;0.80;;;0.80;;
10299;SDS011;5195;48.562;9.192;2023-01-16T10:05:22;0.90;;;0.90;;
10299;SDS011;5195;48.562;9.192;2023-01-16T10:08:03;2.00;;;0.77;;
10299;SDS011;5195;48.562;9.192;2023-01-16T10:10:39;1.00;;;0.90;;
10299;SDS011;5195;48.562;9.192;2023-01-16T10:16:07;0.93;;;0.77;;
10299;SDS011;5195;48.562;9.192;2023-01-16T10:21:51;1.63;;;0.80;;
10299;SDS011;5195;48.562;9.192;2023-01-16T10:30:16;1.10;;;0.83;;
10299;SDS011;5195;48.562;9.192;2023-01-16T10:32:51;0.87;;;0.87;;
10299;SDS011;5195;48.562;9.192;2023-01-16T10:35:41;0.83;;;0.80;;
10299;SDS011;5195;48.562;9.192;2023-01-16T10:38:26;1.23;;;0.87;;
10299;SDS011;5195;48.562;9.192;2023-01-16T10:40:58;0.60;;;0.60;;
10299;SDS011;5195;48.562;9.192;2023-01-16T10:43:34;0.90;;;0.80;;
10299;SDS011;5195;48.562;9.192;2023-01-16T10:46:29;1.60;;;0.57;;
10299;SDS011;5195;48.562;9.192;2023-01-16T10:49:25;0.70;;;0.50;;
10299;SDS011;5195;48.562;9.192;2023-01-16T10:52:03;0.40;;;0.40;;
10299;SDS011;5195;48.562;9.192;2023-01-16T10:54:39;1.00;;;0.50;;
10299;SDS011;5195;48.562;9.192;2023-01-16T10:57:16;0.40;;;0.40;;
10299;SDS011;5195;48.562;9.192;2023-01-16T10:59:51;0.50;;;0.50;;
10299;SDS011;5195;48.562;9.192;2023-01-16T11:02:30;0.50;;;0.50;;
10299;SDS011;5195;48.562;9.192;2023-01-16T11:08:10;0.50;;;0.47;;
10299;SDS011;5195;48.562;9.192;2023-01-16T11:10:44;1.00;;;0.97;;
10299;SDS011;5195;48.562;9.192;2023-01-16T11:13:25;0.40;;;0.40;;
10299;SDS011;5195;48.562;9.192;2023-01-16T11:16:26;0.60;;;0.60;;
10299;SDS011;5195;48.562;9.192;2023-01-16T11:19:19;0.40;;;0.40;;
10299;SDS011;5195;48.562;9.192;2023-01-16T11:21:54;1.30;;;0.83;;
10299;SDS011;5195;48.562;9.192;2023-01-16T11:24:33;0.50;;;0.43;;
10299;SDS011;5195;48.562;9.192;2023-01-16T11:27:12;0.40;;;0.40;;
10299;SDS011;5195;48.562;9.192;2023-01-16T11:29:43;0.57;;;0.45;;
10299;SDS011;5195;48.562;9.192;2023-01-16T11:32:20;0.40;;;0.40;;
10299;SDS011;5195;48.562;9.192;2023-01-16T11:34:56;1.20;;;0.40;;
10299;SDS011;5195;48.562;9.192;2023-01-16T11:37:32;0.70;;;0.50;;
10299;SDS011;5195;48.562;9.192;2023-01-16T11:40:18;0.73;;;0.40;;
10299;SDS011;5195;48.562;9.192;2023-01-16T11:42:54;0.50;;;0.50;;
10299;SDS011;5195;48.562;9.192;2023-01-16T11:45:49;0.55;;;0.50;;
10299;SDS011;5195;48.562;9.192;2023-01-16T11:48:42;0.63;;;0.63;;
10299;SDS011;5195;48.562;9.192;2023-01-16T11:51:17;0.90;;;0.90;;
10299;SDS011;5195;48.562;9.192;2023-01-16T11:53:52;2.20;;;0.90;;
10299;SDS011;5195;48.562;9.192;2023-01-16T11:59:18;0.60;;;0.60;;
10299;SDS011;5195;48.562;9.192;2023-01-16T12:08:23;0.57;;;0.57;;
10299;SDS011;5195;48.562;9.192;2023-01-16T12:20:00;0.80;;;0.80;;
10299;SDS011;5195;48.562;9.192;2023-01-16T12:43:38;1.63;;;0.50;;
10299;SDS011;5195;48.562;9.192;2023-01-16T12:46:23;0.47;;;0.47;;
10299;SDS011;5195;48.562;9.192;2023-01-16T12:48:59;0.30;;;0.30;;
10299;SDS011;5195;48.562;9.192;2023-01-16T12:51:55;0.47;;;0.47;;
10299;SDS011;5195;48.562;9.192;2023-01-16T12:54:58;0.50;;;0.40;;
10299;SDS011;5195;48.562;9.192;2023-01-16T13:00:30;0.40;;;0.40;;
10299;SDS011;5195;48.562;9.192;2023-01-16T13:06:03;1.40;;;0.55;;
10299;SDS011;5195;48.562;9.192;2023-01-16T13:08:41;0.90;;;0.90;;
10299;SDS011;5195;48.562;9.192;2023-01-16T13:11:18;0.50;;;0.50;;
10299;SDS011;5195;48.562;9.192;2023-01-16T13:14:11;0.87;;;0.87;;
10299;SDS011;5195;48.562;9.192;2023-01-16T13:16:57;1.95;;;1.85;;
10299;SDS011;5195;48.562;9.192;2023-01-16T13:19:36;7.30;;;7.00;;
10299;SDS011;5195;48.562;9.192;2023-01-16T13:22:21;4.27;;;4.10;;
10299;SDS011;5195;48.562;9.192;2023-01-16T13:25:01;0.95;;;0.95;;
10299;SDS011;5195;48.562;9.192;2023-01-16T13:27:39;0.70;;;0.70;;
10299;SDS011;5195;48.562;9.192;2023-01-16T13:30:16;0.60;;;0.60;;
10299;SDS011;5195;48.562;9.192;2023-01-16T13:32:54;0.40;;;0.40;;
10299;SDS011;5195;48.562;9.192;2023-01-16T13:41:40;0.50;;;0.50;;
10299;SDS011;5195;48.562;9.192;2023-01-16T13:44:16;0.50;;;0.50;;
10299;SDS011;5195;48.562;9.192;2023-01-16T13:47:11;1.00;;;1.00;;
10299;SDS011;5195;48.562;9.192;2023-01-16T13:49:54;1.10;;;0.70;;
10299;SDS011;5195;48.562;9.192;2023-01-16T13:52:29;1.10;;;0.60;;
10299;SDS011;5195;48.562;9.192;2023-01-16T13:55:05;0.50;;;0.50;;
10299;SDS011;5195;48.562;9.192;2023-01-16T13:57:41;0.43;;;0.43;;
10299;SDS011;5195;48.562;9.192;2023-01-16T14:00:18;0.40;;;0.40;;
10299;SDS011;5195;48.562;9.192;2023-01-16T14:03:00;0.50;;;0.50;;
10299;SDS011;5195;48.562;9.192;2023-01-16T14:05:42;0.37;;;0.37;;
10299;SDS011;5195;48.562;9.192;2023-01-16T14:11:38;0.50;;;0.50;;
10299;SDS011;5195;48.562;9.192;2023-01-16T14:14:20;0.40;;;0.40;;
10299;SDS011;5195;48.562;9.192;2023-01-16T14:17:00;0.40;;;0.40;;
10299;SDS011;5195;48.562;9.192;2023-01-16T14:19:38;0.70;;;0.50;;
10299;SDS011;5195;48.562;9.192;2023-01-16T14:22:16;0.40;;;0.40;;
10299;SDS011;5195;48.562;9.192;2023-01-16T14:24:50;0.50;;;0.50;;
10299;SDS011;5195;48.562;9.192;2023-01-16T14:27:28;4.27;;;3.87;;
10299;SDS011;5195;48.562;9.192;2023-01-16T14:30:00;1.00;;;1.00;;
10299;SDS011;5195;48.562;9.192;2023-01-16T14:32:35;1.93;;;0.80;;
10299;SDS011;5195;48.562;9.192;2023-01-16T14:35:12;0.53;;;0.50;;
10299;SDS011;5195;48.562;9.192;2023-01-16T14:37:54;1.87;;;1.67;;
10299;SDS011;5195;48.562;9.192;2023-01-16T14:40:29;0.87;;;0.87;;
10299;SDS011;5195;48.562;9.192;2023-01-16T14:43:29;1.03;;;0.60;;
10299;SDS011;5195;48.562;9.192;2023-01-16T14:58:37;0.90;;;0.90;;
10299;SDS011;5195;48.562;9.192;2023-01-16T15:01:14;1.00;;;0.80;;
10299;SDS011;5195;48.562;9.192;2023-01-16T15:04:28;0.70;;;0.70;;
10299;SDS011;5195;48.562;9.192;2023-01-16T15:07:02;1.10;;;1.00;;
10299;SDS011;5195;48.562;9.192;2023-01-16T15:09:38;2.83;;;2.63;;
10299;SDS011;5195;48.562;9.192;2023-01-16T15:12:14;1.27;;;1.20;;
10299;SDS011;5195;48.562;9.192;2023-01-16T15:14:51;0.70;;;0.70;;
10299;SDS011;5195;48.562;9.192;2023-01-16T15:17:37;0.60;;;0.60;;
10299;SDS011;5195;48.562;9.192;2023-01-16T15:20:31;0.57;;;0.57;;
10299;SDS011;5195;48.562;9.192;2023-01-16T15:23:27;2.20;;;0.90;;
10299;SDS011;5195;48.562;9.192;2023-01-16T15:31:18;0.80;;;0.70;;
10299;SDS011;5195;48.562;9.192;2023-01-16T15:39:25;1.52;;;0.80;;
10299;SDS011;5195;48.562;9.192;2023-01-16T15:42:10;0.60;;;0.60;;
10299;SDS011;5195;48.562;9.192;2023-01-16T15:48:34;0.57;;;0.57;;
10299;SDS011;5195;48.562;9.192;2023-01-16T15:51:19;0.50;;;0.50;;
10299;SDS011;5195;48.562;9.192;2023-01-16T15:53:49;0.80;;;0.53;;
10299;SDS011;5195;48.562;9.192;2023-01-16T15:56:35;0.57;;;0.52;;
10299;SDS011;5195;48.562;9.192;2023-01-16T15:59:23;0.40;;;0.40;;
10299;SDS011;5195;48.562;9.192;2023-01-16T16:02:18;0.70;;;0.70;;
10299;SDS011;5195;48.562;9.192;2023-01-16T16:04:59;1.07;;;1.07;;
10299;SDS011;5195;48.562;9.192;2023-01-16T16:07:34;2.25;;;2.05;;
10299;SDS011;5195;48.562;9.192;2023-01-16T16:10:11;6.50;;;5.47;;
10299;SDS011;5195;48.562;9.192;2023-01-16T16:12:45;4.90;;;4.47;;
10299;SDS011;5195;48.562;9.192;2023-01-16T16:15:21;2.60;;;1.83;;
10299;SDS011;5195;48.562;9.192;2023-01-16T16:18:17;1.30;;;1.23;;
10299;SDS011;5195;48.562;9.192;2023-01-16T16:20:53;0.97;;;0.97;;
10299;SDS011;5195;48.562;9.192;2023-01-16T16:23:29;1.00;;;1.00;;
10299;SDS011;5195;48.562;9.192;2023-01-16T16:26:04;1.03;;;1.03;;
10299;SDS011;5195;48.562;9.192;2023-01-16T16:28:40;1.43;;;1.40;;
10299;SDS011;5195;48.562;9.192;2023-01-16T16:31:23;1.65;;;1.55;;
10299;SDS011;5195;48.562;9.192;2023-01-16T16:34:05;1.10;;;1.10;;
10299;SDS011;5195;48.562;9.192;2023-01-16T16:36:43;1.27;;;1.17;;
10299;SDS011;5195;48.562;9.192;2023-01-16T16:39:35;1.30;;;1.20;;
10299;SDS011;5195;48.562;9.192;2023-01-16T16:42:23;0.90;;;0.90;;
10299;SDS011;5195;48.562;9.192;2023-01-16T16:48:13;0.70;;;0.70;;
10299;SDS011;5195;48.562;9.192;2023-01-16T16:50:48;0.60;;;0.60;;
10299;SDS011;5195;48.562;9.192;2023-01-16T16:57:00;0.32;;;0.32;;
10299;SDS011;5195;48.562;9.192;2023-01-16T16:59:35;0.40;;;0.40;;
10299;SDS011;5195;48.562;9.192;2023-01-16T17:02:11;0.40;;;0.40;;
10299;SDS011;5195;48.562;9.192;2023-01-16T17:04:47;0.60;;;0.60;;
10299;SDS011;5195;48.562;9.192;2023-01-16T17:07:24;0.80;;;0.80;;
10299;SDS011;5195;48.562;9.192;2023-01-16T17:10:00;0.30;;;0.30;;
10299;SDS011;5195;48.562;9.192;2023-01-16T17:12:35;0.62;;;0.62;;
10299;SDS011;5195;48.562;9.192;2023-01-16T17:15:11;0.60;;;0.60;;
10299;SDS011;5195;48.562;9.192;2023-01-16T17:17:46;0.70;;;0.70;;
10299;SDS011;5195;48.562;9.192;2023-01-16T17:20:22;0.90;;;0.90;;
10299;SDS011;5195;48.562;9.192;2023-01-16T17:22:58;0.50;;;0.50;;
10299;SDS011;5195;48.562;9.192;2023-01-16T17:25:34;1.70;;;0.60;;
10299;SDS011;5195;48.562;9.192;2023-01-16T17:28:10;0.40;;;0.40;;
10299;SDS011;5195;48.562;9.192;2023-01-16T17:30:47;0.30;;;0.30;;
10299;SDS011;5195;48.562;9.192;2023-01-16T17:33:22;1.83;;;0.67;;
10299;SDS011;5195;48.562;9.192;2023-01-16T17:35:58;0.50;;;0.50;;
10299;SDS011;5195;48.562;9.192;2023-01-16T17:38:47;0.50;;;0.50;;
10299;SDS011;5195;48.562;9.192;2023-01-16T17:41:24;0.50;;;0.50;;
10299;SDS011;5195;48.562;9.192;2023-01-16T17:43:59;0.60;;;0.60;;
10299;SDS011;5195;48.562;9.192;2023-01-16T17:46:57;1.30;;;0.53;;
10299;SDS011;5195;48.562;9.192;2023-01-16T17:49:33;0.70;;;0.70;;
10299;SDS011;5195;48.562;9.192;2023-01-16T17:52:12;0.50;;;0.50;;
10299;SDS011;5195;48.562;9.192;2023-01-16T17:54:47;0.70;;;0.60;;
10299;SDS011;5195;48.562;9.192;2023-01-16T17:57:43;0.57;;;0.50;;
10299;SDS011;5195;48.562;9.192;2023-01-16T18:00:18;0.40;;;0.40;;
10299;SDS011;5195;48.562;9.192;2023-01-16T18:02:54;0.43;;;0.43;;
10299;SDS011;5195;48.562;9.192;2023-01-16T18:05:30;0.70;;;0.70;;
10299;SDS011;5195;48.562;9.192;2023-01-16T18:08:07;5.62;;;5.12;;
10299;SDS011;5195;48.562;9.192;2023-01-16T18:10:42;9.07;;;8.43;;
10299;SDS011;5195;48.562;9.192;2023-01-16T18:13:18;2.30;;;2.20;;
10299;SDS011;5195;48.562;9.192;2023-01-16T18:16:14;1.43;;;0.90;;
10299;SDS011;5195;48.562;9.192;2023-01-16T18:19:11;1.30;;;1.30;;
10299;SDS011;5195;48.562;9.192;2023-01-16T18:21:47;2.50;;;1.60;;
10299;SDS011;5195;48.562;9.192;2023-01-16T18:24:37;1.10;;;1.10;;
10299;SDS011;5195;48.562;9.192;2023-01-16T18:27:12;1.10;;;1.10;;
10299;SDS011;5195;48.562;9.192;2023-01-16T18:29:47;0.73;;;0.70;;
10299;SDS011;5195;48.562;9.192;2023-01-16T18:32:23;1.20;;;1.20;;
10299;SDS011;5195;48.562;9.192;2023-01-16T18:34:59;1.20;;;1.10;;
10299;SDS011;5195;48.562;9.192;2023-01-16T18:37:39;0.70;;;0.60;;
10299;SDS011;5195;48.562;9.192;2023-01-16T18:40:14;1.30;;;0.87;;
10299;SDS011;5195;48.562;9.192;2023-01-16T18:43:09;1.17;;;1.07;;
10299;SDS011;5195;48.562;9.192;2023-01-16T18:46:04;1.83;;;1.73;;
10299;SDS011;5195;48.562;9.192;2023-01-16T18:48:59;1.57;;;0.80;;
10299;SDS011;5195;48.562;9.192;2023-01-16T18:51:55;0.83;;;0.70;;
10299;SDS011;5195;48.562;9.192;2023-01-16T18:54:50;0.70;;;0.70;;